createdAt,value
2019-01-02T00:00:56.148Z,5.80
2019-01-02T00:01:56.139Z,5.76
2019-01-02T00:02:56.131Z,5.73
2019-01-02T00:03:56.124Z,5.82
2019-01-02T00:04:56.120Z,5.79
2019-01-02T00:05:56.108Z,5.82
2019-01-02T00:06:56.101Z,5.79
2019-01-02T00:07:56.093Z,5.76
2019-01-02T00:08:56.085Z,5.84
2019-01-02T00:09:56.076Z,5.82
2019-01-02T00:10:56.069Z,5.83
2019-01-02T00:11:56.063Z,5.75
2019-01-02T00:12:56.054Z,5.65
2019-01-02T00:13:56.047Z,5.76
2019-01-02T00:14:56.039Z,5.65
2019-01-02T00:15:56.031Z,5.59
2019-01-02T00:16:56.023Z,5.56
2019-01-02T00:17:56.014Z,5.56
2019-01-02T00:18:56.008Z,5.64
2019-01-02T00:19:56.000Z,5.68
2019-01-02T00:20:55.992Z,5.54
2019-01-02T00:21:56.732Z,5.69
2019-01-02T00:22:55.976Z,5.72
2019-01-02T00:23:55.969Z,5.79
2019-01-02T00:24:55.961Z,5.75
2019-01-02T00:25:55.952Z,5.75
2019-01-02T00:26:55.944Z,5.65
2019-01-02T00:27:55.937Z,5.64
2019-01-02T00:28:55.937Z,5.65
2019-01-02T00:29:55.924Z,5.79
2019-01-02T00:30:55.914Z,5.79
2019-01-02T00:31:55.905Z,5.84
2019-01-02T00:32:55.898Z,5.84
2019-01-02T00:33:55.889Z,5.83
2019-01-02T00:34:55.884Z,5.83
2019-01-02T00:35:55.874Z,5.86
2019-01-02T00:36:55.867Z,5.86
2019-01-02T00:37:55.859Z,5.83
2019-01-02T00:38:55.850Z,5.82
2019-01-02T00:39:55.843Z,5.90
2019-01-02T00:40:55.836Z,5.73
2019-01-02T00:41:55.827Z,5.76
2019-01-02T00:42:55.819Z,5.71
2019-01-02T00:43:55.812Z,5.69
2019-01-02T00:44:55.804Z,5.64
2019-01-02T00:45:55.796Z,5.68
2019-01-02T00:46:55.789Z,5.75
2019-01-02T00:47:55.780Z,5.76
2019-01-02T00:48:55.772Z,5.79
2019-01-02T00:49:55.765Z,5.76
2019-01-02T00:50:55.756Z,5.79
2019-01-02T00:51:55.748Z,5.80
2019-01-02T00:52:55.740Z,5.83
2019-01-02T00:53:55.733Z,5.80
2019-01-02T00:54:55.726Z,5.87
2019-01-02T00:55:55.716Z,5.86
2019-01-02T00:56:55.711Z,5.82
2019-01-02T00:57:55.951Z,5.84
2019-01-02T00:58:55.694Z,5.83
2019-01-02T00:59:55.686Z,5.84
2019-01-02T01:00:55.679Z,5.86
2019-01-02T01:01:55.669Z,5.90
2019-01-02T01:02:55.663Z,5.80
2019-01-02T01:03:55.655Z,5.80
2019-01-02T01:04:55.646Z,5.79
2019-01-02T01:05:55.640Z,5.80
2019-01-02T01:06:55.631Z,5.72
2019-01-02T01:07:55.623Z,5.76
2019-01-02T01:08:55.616Z,5.76
2019-01-02T01:09:55.606Z,5.82
2019-01-02T01:10:55.599Z,5.86
2019-01-02T01:11:55.590Z,5.76
2019-01-02T01:12:55.584Z,5.75
2019-01-02T01:13:55.576Z,5.73
2019-01-02T01:14:55.571Z,5.72
2019-01-02T01:15:55.561Z,5.73
2019-01-02T01:16:55.553Z,5.65
2019-01-02T01:17:55.543Z,5.65
2019-01-02T01:18:55.535Z,5.72
2019-01-02T01:19:55.528Z,5.73
2019-01-02T01:20:55.521Z,5.64
2019-01-02T01:21:55.512Z,5.64
2019-01-02T01:22:55.504Z,5.76
2019-01-02T01:23:55.497Z,5.80
2019-01-02T01:24:55.490Z,5.83
2019-01-02T01:25:55.481Z,5.80
2019-01-02T01:26:55.475Z,5.76
2019-01-02T01:27:55.466Z,5.65
2019-01-02T01:28:55.458Z,5.75
2019-01-02T01:29:55.450Z,5.68
2019-01-02T01:30:55.441Z,5.76
2019-01-02T01:31:55.436Z,5.65
2019-01-02T01:32:55.427Z,5.75
2019-01-02T01:33:55.420Z,5.73
2019-01-02T01:34:55.409Z,5.64
2019-01-02T01:35:55.402Z,5.71
2019-01-02T01:36:55.395Z,5.72
2019-01-02T01:37:55.387Z,5.73
2019-01-02T01:38:55.379Z,5.86
2019-01-02T01:39:55.371Z,5.83
2019-01-02T01:40:55.363Z,5.79
2019-01-02T01:41:55.356Z,5.84
2019-01-02T01:42:55.348Z,5.82
2019-01-02T01:43:55.342Z,5.83
2019-01-02T01:44:55.332Z,5.84
2019-01-02T01:45:55.325Z,5.91
2019-01-02T01:46:55.318Z,5.82
2019-01-02T01:47:55.308Z,5.91
2019-01-02T01:48:55.302Z,5.84
2019-01-02T01:49:55.292Z,5.82
2019-01-02T01:50:55.285Z,5.73
2019-01-02T01:51:55.279Z,5.62
2019-01-02T01:52:55.270Z,5.68
2019-01-02T01:53:55.261Z,5.57
2019-01-02T01:54:55.253Z,5.48
2019-01-02T01:55:55.247Z,5.48
2019-01-02T01:56:55.240Z,5.46
2019-01-02T01:57:55.231Z,5.47
2019-01-02T01:58:55.223Z,5.38
2019-01-02T01:59:55.217Z,5.44
2019-01-02T02:00:55.208Z,5.47
2019-01-02T02:01:55.200Z,5.50
2019-01-02T02:02:55.192Z,5.53
2019-01-02T02:03:55.185Z,5.54
2019-01-02T02:04:55.176Z,5.50
2019-01-02T02:05:55.168Z,5.50
2019-01-02T02:06:55.161Z,5.41
2019-01-02T02:07:55.153Z,5.46
2019-01-02T02:08:55.145Z,5.44
2019-01-02T02:09:55.136Z,5.44
2019-01-02T02:10:55.128Z,5.46
2019-01-02T02:11:55.121Z,5.39
2019-01-02T02:12:55.114Z,5.39
2019-01-02T02:13:55.106Z,5.39
2019-01-02T02:14:55.097Z,5.38
2019-01-02T02:15:55.089Z,5.38
2019-01-02T02:16:55.082Z,5.38
2019-01-02T02:17:55.073Z,5.36
2019-01-02T02:18:55.066Z,5.43
2019-01-02T02:19:55.059Z,5.41
2019-01-02T02:20:55.050Z,5.47
2019-01-02T02:21:55.041Z,5.44
2019-01-02T02:22:55.033Z,5.43
2019-01-02T02:23:55.026Z,5.35
2019-01-02T02:24:55.018Z,5.38
2019-01-02T02:25:55.009Z,5.43
2019-01-02T02:26:55.004Z,5.39
2019-01-02T02:27:54.995Z,5.30
2019-01-02T02:28:54.987Z,5.36
2019-01-02T02:29:54.984Z,5.36
2019-01-02T02:30:54.971Z,5.39
2019-01-02T02:31:54.966Z,5.41
2019-01-02T02:32:54.955Z,5.44
2019-01-02T02:33:54.948Z,5.48
2019-01-02T02:34:54.940Z,5.51
2019-01-02T02:35:54.931Z,5.51
2019-01-02T02:36:54.927Z,5.46
2019-01-02T02:37:54.915Z,5.47
2019-01-02T02:38:54.907Z,5.51
2019-01-02T02:39:54.899Z,5.51
2019-01-02T02:40:54.892Z,5.54
2019-01-02T02:41:54.882Z,5.54
2019-01-02T02:42:54.875Z,5.53
2019-01-02T02:43:54.867Z,5.65
2019-01-02T02:44:54.861Z,5.54
2019-01-02T02:45:54.852Z,5.59
2019-01-02T02:46:54.844Z,5.62
2019-01-02T02:47:54.836Z,5.72
2019-01-02T02:48:54.827Z,5.83
2019-01-02T02:49:54.819Z,5.83
2019-01-02T02:50:54.813Z,5.76
2019-01-02T02:51:54.804Z,5.79
2019-01-02T02:52:54.797Z,5.72
2019-01-02T02:53:54.787Z,5.69
2019-01-02T02:54:54.779Z,5.83
2019-01-02T02:55:54.773Z,5.83
2019-01-02T02:56:54.766Z,5.76
2019-01-02T02:57:54.757Z,5.76
2019-01-02T02:58:54.749Z,5.76
2019-01-02T02:59:54.742Z,5.64
2019-01-02T03:00:54.739Z,5.59
2019-01-02T03:01:54.725Z,5.59
2019-01-02T03:02:54.716Z,5.56
2019-01-02T03:03:54.710Z,5.61
2019-01-02T03:04:54.702Z,5.56
2019-01-02T03:05:54.694Z,5.53
2019-01-02T03:06:55.439Z,5.54
2019-01-02T03:07:54.678Z,5.50
2019-01-02T03:08:54.670Z,5.48
2019-01-02T03:09:54.661Z,5.61
2019-01-02T03:10:54.653Z,5.56
2019-01-02T03:11:54.647Z,5.56
2019-01-02T03:12:54.640Z,5.64
2019-01-02T03:13:54.630Z,5.59
2019-01-02T03:14:54.624Z,5.62
2019-01-02T03:15:54.615Z,5.56
2019-01-02T03:16:54.607Z,5.71
2019-01-02T03:17:54.601Z,5.66
2019-01-02T03:18:54.591Z,5.65
2019-01-02T03:19:54.583Z,5.54
2019-01-02T03:20:54.582Z,5.68
2019-01-02T03:21:54.567Z,5.66
2019-01-02T03:22:54.559Z,5.69
2019-01-02T03:23:54.553Z,5.66
2019-01-02T03:24:54.545Z,5.73
2019-01-02T03:25:54.537Z,5.68
2019-01-02T03:26:54.528Z,5.65
2019-01-02T03:27:54.522Z,5.76
2019-01-02T03:28:54.514Z,5.76
2019-01-02T03:29:54.505Z,5.73
2019-01-02T03:30:54.498Z,5.83
2019-01-02T03:31:54.513Z,5.76
2019-01-02T03:32:54.484Z,5.76
2019-01-02T03:33:54.475Z,5.79
2019-01-02T03:34:54.466Z,5.86
2019-01-02T03:35:54.460Z,5.73
2019-01-02T03:36:54.452Z,5.76
2019-01-02T03:37:54.447Z,5.82
2019-01-02T03:38:54.437Z,5.87
2019-01-02T03:39:54.428Z,5.87
2019-01-02T03:40:54.420Z,5.89
2019-01-02T03:41:54.413Z,5.90
2019-01-02T03:42:54.506Z,5.91
2019-01-02T03:43:54.399Z,5.84
2019-01-02T03:44:54.393Z,5.91
2019-01-02T03:45:54.381Z,5.93
2019-01-02T03:46:54.375Z,5.99
2019-01-02T03:47:54.370Z,5.98
2019-01-02T03:48:54.360Z,5.97
2019-01-02T03:49:54.352Z,5.94
2019-01-02T03:50:54.345Z,5.98
2019-01-02T03:51:54.337Z,5.93
2019-01-02T03:52:54.330Z,5.99
2019-01-02T03:53:54.321Z,6.07
2019-01-02T03:54:54.315Z,6.05
2019-01-02T03:55:54.306Z,6.09
2019-01-02T03:56:54.300Z,6.04
2019-01-02T03:57:54.290Z,5.99
2019-01-02T03:58:54.283Z,5.99
2019-01-02T03:59:54.275Z,6.04
2019-01-02T04:00:54.268Z,5.99
2019-01-02T04:01:54.260Z,5.94
2019-01-02T04:02:54.253Z,6.01
2019-01-02T04:03:54.245Z,6.07
2019-01-02T04:04:54.239Z,6.16
2019-01-02T04:05:54.229Z,6.12
2019-01-02T04:06:54.223Z,6.11
2019-01-02T04:07:54.216Z,6.19
2019-01-02T04:08:54.260Z,6.14
2019-01-02T04:09:54.204Z,6.16
2019-01-02T04:10:54.192Z,6.11
2019-01-02T04:11:54.186Z,6.17
2019-01-02T04:12:54.178Z,6.17
2019-01-02T04:13:54.170Z,6.08
2019-01-02T04:14:54.164Z,6.26
2019-01-02T04:15:54.160Z,6.12
2019-01-02T04:16:54.149Z,6.16
2019-01-02T04:17:54.141Z,6.11
2019-01-02T04:18:54.132Z,6.14
2019-01-02T04:19:54.126Z,6.02
2019-01-02T04:20:54.117Z,5.98
2019-01-02T04:21:54.109Z,5.94
2019-01-02T04:22:54.103Z,5.97
2019-01-02T04:23:54.095Z,6.02
2019-01-02T04:24:54.088Z,5.98
2019-01-02T04:25:54.079Z,5.93
2019-01-02T04:26:54.072Z,5.83
2019-01-02T04:27:54.064Z,5.86
2019-01-02T04:28:54.058Z,5.86
2019-01-02T04:29:54.048Z,5.82
2019-01-02T04:30:54.045Z,5.91
2019-01-02T04:31:54.036Z,5.80
2019-01-02T04:32:54.027Z,5.82
2019-01-02T04:33:54.017Z,5.90
2019-01-02T04:34:54.011Z,5.86
2019-01-02T04:35:54.003Z,5.75
2019-01-02T04:36:53.996Z,5.76
2019-01-02T04:37:53.992Z,5.75
2019-01-02T04:38:53.980Z,5.75
2019-01-02T04:39:53.979Z,5.83
2019-01-02T04:40:53.968Z,5.76
2019-01-02T04:41:53.960Z,5.75
2019-01-02T04:42:53.956Z,5.80
2019-01-02T04:43:53.941Z,5.71
2019-01-02T04:44:53.934Z,5.76
2019-01-02T04:45:53.928Z,5.66
2019-01-02T04:46:53.919Z,5.66
2019-01-02T04:47:53.911Z,5.69
2019-01-02T04:48:53.908Z,5.76
2019-01-02T04:49:53.895Z,5.73
2019-01-02T04:50:53.889Z,5.71
2019-01-02T04:51:53.884Z,5.68
2019-01-02T04:52:53.876Z,5.71
2019-01-02T04:53:53.866Z,5.72
2019-01-02T04:54:53.858Z,5.73
2019-01-02T04:55:53.851Z,5.79
2019-01-02T04:56:53.843Z,5.83
2019-01-02T04:57:53.835Z,5.80
2019-01-02T04:58:53.827Z,5.82
2019-01-02T04:59:53.819Z,5.82
2019-01-02T05:00:53.813Z,5.99
2019-01-02T05:01:53.807Z,5.93
2019-01-02T05:02:53.797Z,5.93
2019-01-02T05:03:53.791Z,5.99
2019-01-02T05:04:53.781Z,5.89
2019-01-02T05:05:53.774Z,5.79
2019-01-02T05:06:53.766Z,5.90
2019-01-02T05:07:53.758Z,5.84
2019-01-02T05:08:53.752Z,5.76
2019-01-02T05:09:53.743Z,5.86
2019-01-02T05:10:53.737Z,5.87
2019-01-02T05:11:53.728Z,5.87
2019-01-02T05:12:53.720Z,5.97
2019-01-02T05:13:53.714Z,5.80
2019-01-02T05:14:53.705Z,5.90
2019-01-02T05:15:53.698Z,5.97
2019-01-02T05:16:53.691Z,5.99
2019-01-02T05:17:53.682Z,5.98
2019-01-02T05:18:53.674Z,6.01
2019-01-02T05:19:53.667Z,5.98
2019-01-02T05:20:53.661Z,6.08
2019-01-02T05:21:53.902Z,5.99
2019-01-02T05:22:53.645Z,6.02
2019-01-02T05:23:53.636Z,5.98
2019-01-02T05:24:53.628Z,5.93
2019-01-02T05:25:53.620Z,5.91
2019-01-02T05:26:53.613Z,5.86
2019-01-02T05:27:53.607Z,5.93
2019-01-02T05:28:53.598Z,5.94
2019-01-02T05:29:53.592Z,5.94
2019-01-02T05:30:53.581Z,5.97
2019-01-02T05:31:53.577Z,6.01
2019-01-02T05:32:53.567Z,5.90
2019-01-02T05:33:53.559Z,5.97
2019-01-02T05:34:53.552Z,5.90
2019-01-02T05:35:53.544Z,5.82
2019-01-02T05:36:53.536Z,5.86
2019-01-02T05:37:54.030Z,5.83
2019-01-02T05:38:53.520Z,5.80
2019-01-02T05:39:53.513Z,5.86
2019-01-02T05:40:53.506Z,5.86
2019-01-02T05:41:53.503Z,5.79
2019-01-02T05:42:53.491Z,5.79
2019-01-02T05:43:53.483Z,5.72
2019-01-02T05:44:53.477Z,5.61
2019-01-02T05:45:53.467Z,5.56
2019-01-02T05:46:53.460Z,5.62
2019-01-02T05:47:53.453Z,5.62
2019-01-02T05:48:53.444Z,5.59
2019-01-02T05:49:53.436Z,5.61
2019-01-02T05:50:53.429Z,5.56
2019-01-02T05:51:53.423Z,5.53
2019-01-02T05:52:53.413Z,5.53
2019-01-02T05:53:53.405Z,5.53
2019-01-02T05:54:53.401Z,5.48
2019-01-02T05:55:53.390Z,5.46
2019-01-02T05:56:53.382Z,5.51
2019-01-02T05:57:53.375Z,5.44
2019-01-02T05:58:53.367Z,5.47
2019-01-02T05:59:53.359Z,5.36
2019-01-02T06:00:53.352Z,5.38
2019-01-02T06:01:53.346Z,5.39
2019-01-02T06:02:53.337Z,5.47
2019-01-02T06:03:53.330Z,5.43
2019-01-02T06:04:53.325Z,5.38
2019-01-02T06:05:53.318Z,5.47
2019-01-02T06:06:53.306Z,5.43
2019-01-02T06:07:53.302Z,5.28
2019-01-02T06:08:53.289Z,5.44
2019-01-02T06:09:53.281Z,5.39
2019-01-02T06:10:53.275Z,5.43
2019-01-02T06:11:53.267Z,5.30
2019-01-02T06:12:53.260Z,5.36
2019-01-02T06:13:53.252Z,5.30
2019-01-02T06:14:53.245Z,5.25
2019-01-02T06:15:53.235Z,5.18
2019-01-02T06:16:53.228Z,5.18
2019-01-02T06:17:53.220Z,5.21
2019-01-02T06:18:53.212Z,5.17
2019-01-02T06:19:53.204Z,5.20
2019-01-02T06:20:53.197Z,5.14
2019-01-02T06:21:53.190Z,5.11
2019-01-02T06:22:53.180Z,5.25
2019-01-02T06:23:53.173Z,5.21
2019-01-02T06:24:53.165Z,5.18
2019-01-02T06:25:53.159Z,5.17
2019-01-02T06:26:53.150Z,5.25
2019-01-02T06:27:53.142Z,5.28
2019-01-02T06:28:53.136Z,5.29
2019-01-02T06:29:53.126Z,5.21
2019-01-02T06:30:53.119Z,5.18
2019-01-02T06:31:53.111Z,5.23
2019-01-02T06:32:53.104Z,5.17
2019-01-02T06:33:53.096Z,5.17
2019-01-02T06:34:53.087Z,5.26
2019-01-02T06:35:53.081Z,5.25
2019-01-02T06:36:53.073Z,5.32
2019-01-02T06:37:53.065Z,5.32
2019-01-02T06:38:53.057Z,5.29
2019-01-02T06:39:53.050Z,5.33
2019-01-02T06:40:53.043Z,5.39
2019-01-02T06:41:53.033Z,5.35
2019-01-02T06:42:53.026Z,5.41
2019-01-02T06:43:53.018Z,5.41
2019-01-02T06:44:53.010Z,5.30
2019-01-02T06:45:53.002Z,5.35
2019-01-02T06:46:52.994Z,5.43
2019-01-02T06:47:52.987Z,5.39
2019-01-02T06:48:52.980Z,5.38
2019-01-02T06:49:52.971Z,5.33
2019-01-02T06:50:52.966Z,5.32
2019-01-02T06:51:52.957Z,5.29
2019-01-02T06:52:52.949Z,5.23
2019-01-02T06:53:52.941Z,5.21
2019-01-02T06:54:52.935Z,5.21
2019-01-02T06:55:52.925Z,5.25
2019-01-02T06:56:52.918Z,5.15
2019-01-02T06:57:52.910Z,5.14
2019-01-02T06:58:52.901Z,5.18
2019-01-02T06:59:52.895Z,5.15
2019-01-02T07:00:52.889Z,5.17
2019-01-02T07:01:52.878Z,5.14
2019-01-02T07:02:52.870Z,5.21
2019-01-02T07:03:52.863Z,5.21
2019-01-02T07:04:52.856Z,5.21
2019-01-02T07:05:52.848Z,5.32
2019-01-02T07:06:52.841Z,5.32
2019-01-02T07:07:52.832Z,5.29
2019-01-02T07:08:52.824Z,5.15
2019-01-02T07:09:52.819Z,5.23
2019-01-02T07:10:52.813Z,5.17
2019-01-02T07:11:52.801Z,5.17
2019-01-02T07:12:52.793Z,5.08
2019-01-02T07:13:52.786Z,5.12
2019-01-02T07:14:52.779Z,5.00
2019-01-02T07:15:52.772Z,4.96
2019-01-02T07:16:52.764Z,4.96
2019-01-02T07:17:52.752Z,4.93
2019-01-02T07:18:52.770Z,4.90
2019-01-02T07:19:52.738Z,4.93
2019-01-02T07:20:52.731Z,4.97
2019-01-02T07:21:52.722Z,4.89
2019-01-02T07:22:52.715Z,4.84
2019-01-02T07:23:52.707Z,4.77
2019-01-02T07:24:53.418Z,4.80
2019-01-02T07:25:52.692Z,4.77
2019-01-02T07:26:52.683Z,4.78
2019-01-02T07:27:52.676Z,4.87
2019-01-02T07:28:52.669Z,4.78
2019-01-02T07:29:52.658Z,4.78
2019-01-02T07:30:52.651Z,4.80
2019-01-02T07:31:52.644Z,4.80
2019-01-02T07:32:52.635Z,4.71
2019-01-02T07:33:52.633Z,4.77
2019-01-02T07:34:52.620Z,4.80
2019-01-02T07:35:52.617Z,4.74
2019-01-02T07:36:52.604Z,4.75
2019-01-02T07:37:52.595Z,4.68
2019-01-02T07:38:52.588Z,4.75
2019-01-02T07:39:52.580Z,4.75
2019-01-02T07:40:52.572Z,4.82
2019-01-02T07:41:52.565Z,4.74
2019-01-02T07:42:52.555Z,4.86
2019-01-02T07:43:52.550Z,4.80
2019-01-02T07:44:52.539Z,4.80
2019-01-02T07:45:52.532Z,4.73
2019-01-02T07:46:52.523Z,4.82
2019-01-02T07:47:52.517Z,4.84
2019-01-02T07:48:52.508Z,4.87
2019-01-02T07:49:52.499Z,4.87
2019-01-02T07:50:52.500Z,4.86
2019-01-02T07:51:52.484Z,4.94
2019-01-02T07:52:52.476Z,4.87
2019-01-02T07:53:52.467Z,4.92
2019-01-02T07:54:52.461Z,4.93
2019-01-02T07:55:52.453Z,4.84
2019-01-02T07:56:52.444Z,4.80
2019-01-02T07:57:52.437Z,4.89
2019-01-02T07:58:52.429Z,4.89
2019-01-02T07:59:52.420Z,5.02
2019-01-02T08:00:52.415Z,4.96
2019-01-02T08:01:52.403Z,5.07
2019-01-02T08:02:52.397Z,4.96
2019-01-02T08:03:52.390Z,5.02
2019-01-02T08:04:52.962Z,5.05
2019-01-02T08:05:52.373Z,5.00
2019-01-02T08:06:52.367Z,4.99
2019-01-02T08:07:52.357Z,5.04
2019-01-02T08:08:52.352Z,5.02
2019-01-02T08:09:52.344Z,5.05
2019-01-02T08:10:52.334Z,5.02
2019-01-02T08:11:52.327Z,5.10
2019-01-02T08:12:52.320Z,5.07
2019-01-02T08:13:52.310Z,5.07
2019-01-02T08:14:52.303Z,5.05
2019-01-02T08:15:52.294Z,5.14
2019-01-02T08:16:52.288Z,5.02
2019-01-02T08:17:52.278Z,5.11
2019-01-02T08:18:52.271Z,5.08
2019-01-02T08:19:52.263Z,5.10
2019-01-02T08:20:52.261Z,5.05
2019-01-02T08:21:52.248Z,5.14
2019-01-02T08:22:52.245Z,5.12
2019-01-02T08:23:52.233Z,5.17
2019-01-02T08:24:52.226Z,5.10
2019-01-02T08:25:52.216Z,5.14
2019-01-02T08:26:52.209Z,5.12
2019-01-02T08:27:52.201Z,5.07
2019-01-02T08:28:52.555Z,5.15
2019-01-02T08:29:52.184Z,5.10
2019-01-02T08:30:52.176Z,5.11
2019-01-02T08:31:52.169Z,5.10
2019-01-02T08:32:52.161Z,5.00
2019-01-02T08:33:52.154Z,4.96
2019-01-02T08:34:52.146Z,5.04
2019-01-02T08:35:52.138Z,4.96
2019-01-02T08:36:52.132Z,5.07
2019-01-02T08:37:52.121Z,5.11
2019-01-02T08:38:52.116Z,5.05
2019-01-02T08:39:52.107Z,5.00
2019-01-02T08:40:52.101Z,4.97
2019-01-02T08:41:52.144Z,5.10
2019-01-02T08:42:52.084Z,5.17
2019-01-02T08:43:52.076Z,5.29
2019-01-02T08:44:52.069Z,5.20
2019-01-02T08:45:52.061Z,5.33
2019-01-02T08:46:52.052Z,5.33
2019-01-02T08:47:52.044Z,5.33
2019-01-02T08:48:52.037Z,5.33
2019-01-02T08:49:52.027Z,5.36
2019-01-02T08:50:52.021Z,5.41
2019-01-02T08:51:52.013Z,5.43
2019-01-02T08:52:52.011Z,5.39
2019-01-02T08:53:52.034Z,5.44
2019-01-02T08:54:51.990Z,5.38
2019-01-02T08:55:51.981Z,5.39
2019-01-02T08:56:51.973Z,5.47
2019-01-02T08:57:51.970Z,5.48
2019-01-02T08:58:51.957Z,5.47
2019-01-02T08:59:51.951Z,5.46
2019-01-02T09:00:51.942Z,5.56
2019-01-02T09:01:51.935Z,5.65
2019-01-02T09:02:51.928Z,5.61
2019-01-02T09:03:51.919Z,5.80
2019-01-02T09:04:51.912Z,5.82
2019-01-02T09:05:51.906Z,5.83
2019-01-02T09:06:51.896Z,5.91
2019-01-02T09:07:51.889Z,5.91
2019-01-02T09:08:51.881Z,6.05
2019-01-02T09:09:51.873Z,6.02
2019-01-02T09:10:51.866Z,5.99
2019-01-02T09:11:51.860Z,6.02
2019-01-02T09:12:51.851Z,6.11
2019-01-02T09:13:51.842Z,5.99
2019-01-02T09:14:51.836Z,6.04
2019-01-02T09:15:51.828Z,6.04
2019-01-02T09:16:51.829Z,5.86
2019-01-02T09:17:51.813Z,5.84
2019-01-02T09:18:51.806Z,5.86
2019-01-02T09:19:51.798Z,5.79
2019-01-02T09:20:51.792Z,5.80
2019-01-02T09:21:51.782Z,5.80
2019-01-02T09:22:51.775Z,5.79
2019-01-02T09:23:51.766Z,5.83
2019-01-02T09:24:51.759Z,5.80
2019-01-02T09:25:51.751Z,5.79
2019-01-02T09:26:51.745Z,5.83
2019-01-02T09:27:51.737Z,5.73
2019-01-02T09:28:51.731Z,5.84
2019-01-02T09:29:51.721Z,5.87
2019-01-02T09:30:51.715Z,5.82
2019-01-02T09:31:51.708Z,5.93
2019-01-02T09:32:51.699Z,5.90
2019-01-02T09:33:52.315Z,5.83
2019-01-02T09:34:51.685Z,5.97
2019-01-02T09:35:51.718Z,5.93
2019-01-02T09:36:51.672Z,5.93
2019-01-02T09:37:51.662Z,5.94
2019-01-02T09:38:51.656Z,6.04
2019-01-02T09:39:51.680Z,6.17
2019-01-02T09:40:51.642Z,6.31
2019-01-02T09:41:51.632Z,6.17
2019-01-02T09:42:51.623Z,6.19
2019-01-02T09:43:51.618Z,6.19
2019-01-02T09:44:51.611Z,6.26
2019-01-02T09:45:51.602Z,6.20
2019-01-02T09:46:51.600Z,6.24
2019-01-02T09:47:51.603Z,6.20
2019-01-02T09:48:51.581Z,6.36
2019-01-02T09:49:51.573Z,6.36
2019-01-02T09:50:51.565Z,6.31
2019-01-02T09:51:51.558Z,6.39
2019-01-02T09:52:51.551Z,6.24
2019-01-02T09:53:51.543Z,6.28
2019-01-02T09:54:51.535Z,6.27
2019-01-02T09:55:51.529Z,6.22
2019-01-02T09:56:51.523Z,6.28
2019-01-02T09:57:51.514Z,6.41
2019-01-02T09:58:51.506Z,6.45
2019-01-02T09:59:51.500Z,6.54
2019-01-02T10:00:51.496Z,6.57
2019-01-02T10:01:51.485Z,6.51
2019-01-02T10:02:51.477Z,6.59
2019-01-02T10:03:51.471Z,6.69
2019-01-02T10:04:51.464Z,6.51
2019-01-02T10:05:51.458Z,6.72
2019-01-02T10:06:51.449Z,6.84
2019-01-02T10:07:51.443Z,6.74
2019-01-02T10:08:51.436Z,6.70
2019-01-02T10:09:51.429Z,6.62
2019-01-02T10:10:51.422Z,6.62
2019-01-02T10:11:51.415Z,6.57
2019-01-02T10:12:51.408Z,6.69
2019-01-02T10:13:51.400Z,6.54
2019-01-02T10:14:51.393Z,6.62
2019-01-02T10:15:51.385Z,6.51
2019-01-02T10:16:51.380Z,6.62
2019-01-02T10:17:51.372Z,6.62
2019-01-02T10:18:51.364Z,6.63
2019-01-02T10:19:51.357Z,6.60
2019-01-02T10:20:51.352Z,6.62
2019-01-02T10:21:51.343Z,6.64
2019-01-02T10:22:51.337Z,6.77
2019-01-02T10:23:51.330Z,6.75
2019-01-02T10:24:51.324Z,6.84
2019-01-02T10:25:51.315Z,6.89
2019-01-02T10:26:51.309Z,7.06
2019-01-02T10:27:51.301Z,6.97
2019-01-02T10:28:51.297Z,7.13
2019-01-02T10:29:51.286Z,7.13
2019-01-02T10:30:51.279Z,7.11
2019-01-02T10:31:51.274Z,7.11
2019-01-02T10:32:51.266Z,7.29
2019-01-02T10:33:51.259Z,7.21
2019-01-02T10:34:51.253Z,7.35
2019-01-02T10:35:51.251Z,7.43
2019-01-02T10:36:51.239Z,7.32
2019-01-02T10:37:51.232Z,7.40
2019-01-02T10:38:51.225Z,7.40
2019-01-02T10:39:51.218Z,7.42
2019-01-02T10:40:51.213Z,7.38
2019-01-02T10:41:51.205Z,7.35
2019-01-02T10:42:51.198Z,7.23
2019-01-02T10:43:51.195Z,7.20
2019-01-02T10:44:51.185Z,7.20
2019-01-02T10:45:51.177Z,7.21
2019-01-02T10:46:51.170Z,7.02
2019-01-02T10:47:51.166Z,7.21
2019-01-02T10:48:51.162Z,7.15
2019-01-02T10:49:51.150Z,7.03
2019-01-02T10:50:51.143Z,7.18
2019-01-02T10:51:51.138Z,7.32
2019-01-02T10:52:51.132Z,7.47
2019-01-02T10:53:51.123Z,7.76
2019-01-02T10:54:51.118Z,8.16
2019-01-02T10:55:51.112Z,8.33
2019-01-02T10:56:51.105Z,8.56
2019-01-02T10:57:51.098Z,8.79
2019-01-02T10:58:51.092Z,8.95
2019-01-02T10:59:51.087Z,8.46
2019-01-02T11:00:51.081Z,8.66
2019-01-02T11:01:51.074Z,8.70
2019-01-02T11:02:51.071Z,8.76
2019-01-02T11:03:51.064Z,8.97
2019-01-02T11:04:51.059Z,9.10
2019-01-02T11:05:51.053Z,9.14
2019-01-02T11:06:51.049Z,8.61
2019-01-02T11:07:51.047Z,8.05
2019-01-02T11:08:51.036Z,7.75
2019-01-02T11:09:51.034Z,8.23
2019-01-02T11:10:51.027Z,8.37
2019-01-02T11:11:51.021Z,8.27
2019-01-02T11:12:51.016Z,8.12
2019-01-02T11:13:51.010Z,7.77
2019-01-02T11:14:51.004Z,7.85
2019-01-02T11:15:51.001Z,7.66
2019-01-02T11:16:50.997Z,7.43
2019-01-02T11:17:50.991Z,7.32
2019-01-02T11:18:50.984Z,7.21
2019-01-02T11:19:50.979Z,7.23
2019-01-02T11:20:50.974Z,7.21
2019-01-02T11:21:50.968Z,7.18
2019-01-02T11:22:50.962Z,7.20
2019-01-02T11:23:50.955Z,7.18
2019-01-02T11:24:50.950Z,7.20
2019-01-02T11:25:50.945Z,7.20
2019-01-02T11:26:50.938Z,7.32
2019-01-02T11:27:50.934Z,7.15
2019-01-02T11:28:50.928Z,7.20
2019-01-02T11:29:50.922Z,7.24
2019-01-02T11:30:50.915Z,7.31
2019-01-02T11:31:50.910Z,7.91
2019-01-02T11:32:50.903Z,7.98
2019-01-02T11:33:50.896Z,7.93
2019-01-02T11:34:50.890Z,7.77
2019-01-02T11:35:50.885Z,7.90
2019-01-02T11:36:50.878Z,7.66
2019-01-02T11:37:50.871Z,7.70
2019-01-02T11:38:50.866Z,7.69
2019-01-02T11:39:50.859Z,7.54
2019-01-02T11:40:50.856Z,7.23
2019-01-02T11:41:50.897Z,7.24
2019-01-02T11:42:50.842Z,7.32
2019-01-02T11:43:50.835Z,7.53
2019-01-02T11:44:50.829Z,7.73
2019-01-02T11:45:50.822Z,7.57
2019-01-02T11:46:50.816Z,7.77
2019-01-02T11:47:50.810Z,7.90
2019-01-02T11:48:50.804Z,7.70
2019-01-02T11:49:50.797Z,7.69
2019-01-02T11:50:50.791Z,7.88
2019-01-02T11:51:50.785Z,7.98
2019-01-02T11:52:50.782Z,8.27
2019-01-02T11:53:50.771Z,8.36
2019-01-02T11:54:50.765Z,8.69
2019-01-02T11:55:50.762Z,8.64
2019-01-02T11:56:50.753Z,8.67
2019-01-02T11:57:50.747Z,8.63
2019-01-02T11:58:50.741Z,8.28
2019-01-02T11:59:50.735Z,8.00
2019-01-02T12:00:50.730Z,7.83
2019-01-02T12:01:50.723Z,7.72
2019-01-02T12:02:50.716Z,7.61
2019-01-02T12:03:50.711Z,7.58
2019-01-02T12:04:50.708Z,7.40
2019-01-02T12:05:50.699Z,7.42
2019-01-02T12:06:50.693Z,7.57
2019-01-02T12:07:50.685Z,7.61
2019-01-02T12:08:50.681Z,7.58
2019-01-02T12:09:50.673Z,7.82
2019-01-02T12:10:50.667Z,7.80
2019-01-02T12:11:50.661Z,7.83
2019-01-02T12:12:50.656Z,7.79
2019-01-02T12:13:50.648Z,7.93
2019-01-02T12:14:50.641Z,7.91
2019-01-02T12:15:50.636Z,7.88
2019-01-02T12:16:50.630Z,7.67
2019-01-02T12:17:50.623Z,7.72
2019-01-02T12:18:50.624Z,7.75
2019-01-02T12:19:50.610Z,7.79
2019-01-02T12:20:50.604Z,7.76
2019-01-02T12:21:50.598Z,7.75
2019-01-02T12:22:50.590Z,7.63
2019-01-02T12:23:50.584Z,7.51
2019-01-02T12:24:50.579Z,7.40
2019-01-02T12:25:50.571Z,7.25
2019-01-02T12:26:50.565Z,7.23
2019-01-02T12:27:50.559Z,7.25
2019-01-02T12:28:50.553Z,7.17
2019-01-02T12:29:50.545Z,7.18
2019-01-02T12:30:50.540Z,6.92
2019-01-02T12:31:50.533Z,6.95
2019-01-02T12:32:50.527Z,6.88
2019-01-02T12:33:50.521Z,6.85
2019-01-02T12:34:50.518Z,6.77
2019-01-02T12:35:50.508Z,6.70
2019-01-02T12:36:50.500Z,6.79
2019-01-02T12:37:50.493Z,6.75
2019-01-02T12:38:50.488Z,6.85
2019-01-02T12:39:50.480Z,6.88
2019-01-02T12:40:50.475Z,6.78
2019-01-02T12:41:50.468Z,6.85
2019-01-02T12:42:50.462Z,6.75
2019-01-02T12:43:50.455Z,6.66
2019-01-02T12:44:50.448Z,6.64
2019-01-02T12:45:50.440Z,6.70
2019-01-02T12:46:50.433Z,6.66
2019-01-02T12:47:50.428Z,6.74
2019-01-02T12:48:50.420Z,6.81
2019-01-02T12:49:50.413Z,6.84
2019-01-02T12:50:50.406Z,6.67
2019-01-02T12:51:50.400Z,6.64
2019-01-02T12:52:50.396Z,6.67
2019-01-02T12:53:50.384Z,6.67
2019-01-02T12:54:50.378Z,6.81
2019-01-02T12:55:50.379Z,6.78
2019-01-02T12:56:50.364Z,6.87
2019-01-02T12:57:50.356Z,6.97
2019-01-02T12:58:50.351Z,7.03
2019-01-02T12:59:50.347Z,7.23
2019-01-02T13:00:50.338Z,7.23
2019-01-02T13:01:50.329Z,7.28
2019-01-02T13:02:50.322Z,7.45
2019-01-02T13:03:50.316Z,7.51
2019-01-02T13:04:50.310Z,7.57
2019-01-02T13:05:50.300Z,7.54
2019-01-02T13:06:50.295Z,7.54
2019-01-02T13:07:50.287Z,7.50
2019-01-02T13:08:50.282Z,7.43
2019-01-02T13:09:50.273Z,7.20
2019-01-02T13:10:50.267Z,7.36
2019-01-02T13:11:50.260Z,7.31
2019-01-02T13:12:50.253Z,7.42
2019-01-02T13:13:50.247Z,7.56
2019-01-02T13:14:50.239Z,7.58
2019-01-02T13:15:50.235Z,7.51
2019-01-02T13:16:50.227Z,7.53
2019-01-02T13:17:50.218Z,7.42
2019-01-02T13:18:50.213Z,7.35